createdAt,value
2023-02-23T00:00:28.608Z,10.94
2023-02-23T00:03:01.613Z,10.95
2023-02-23T00:05:30.520Z,10.95
2023-02-23T00:07:58.399Z,10.97
2023-02-23T00:10:30.424Z,11.00
2023-02-23T00:12:59.299Z,10.99
2023-02-23T00:15:27.345Z,10.98
2023-02-23T00:17:55.617Z,10.94
2023-02-23T00:20:27.539Z,10.94
2023-02-23T00:22:56.186Z,10.92
2023-02-23T00:25:25.489Z,10.93
2023-02-23T00:27:55.546Z,10.93
2023-02-23T00:30:23.817Z,10.93
2023-02-23T00:32:52.545Z,10.96
2023-02-23T00:35:20.438Z,10.96
2023-02-23T00:37:49.985Z,10.97
2023-02-23T00:40:18.627Z,10.97
2023-02-23T00:42:46.625Z,10.98
2023-02-23T00:45:14.608Z,10.98
2023-02-23T00:47:44.203Z,10.97
2023-02-23T00:50:14.848Z,10.95
2023-02-23T00:52:43.671Z,10.95
2023-02-23T00:55:13.532Z,10.94
2023-02-23T00:57:41.484Z,10.93
2023-02-23T01:00:18.697Z,10.94
2023-02-23T01:02:46.631Z,10.91
2023-02-23T01:05:14.538Z,10.88
2023-02-23T01:07:42.444Z,10.86
2023-02-23T01:10:19.521Z,10.84
2023-02-23T01:12:49.649Z,10.85
2023-02-23T01:15:17.776Z,10.82
2023-02-23T01:17:45.819Z,10.79
2023-02-23T01:20:18.126Z,10.81
2023-02-23T01:22:46.557Z,10.79
2023-02-23T01:25:16.552Z,10.79
2023-02-23T01:27:44.843Z,10.76
2023-02-23T01:30:14.985Z,10.68
2023-02-23T01:32:42.932Z,10.75
2023-02-23T01:35:12.649Z,10.73
2023-02-23T01:37:41.834Z,10.72
2023-02-23T01:42:47.275Z,10.75
2023-02-23T01:45:24.759Z,10.75
2023-02-23T01:47:53.553Z,10.76
2023-02-23T01:50:21.976Z,10.74
2023-02-23T01:52:51.618Z,10.73
2023-02-23T01:55:24.228Z,10.71
2023-02-23T01:57:54.757Z,10.73
2023-02-23T02:00:25.826Z,10.72
2023-02-23T02:02:53.879Z,10.66
2023-02-23T02:05:22.090Z,10.72
2023-02-23T02:07:51.023Z,10.75
2023-02-23T02:10:39.218Z,10.71
2023-02-23T02:13:08.791Z,10.71
2023-02-23T02:15:39.500Z,10.74
2023-02-23T02:18:12.565Z,10.76
2023-02-23T02:20:53.562Z,10.81
2023-02-23T02:23:41.880Z,10.84
2023-02-23T02:26:18.603Z,10.87
2023-02-23T02:29:03.463Z,10.86
2023-02-23T02:32:02.670Z,10.88
2023-02-23T02:35:07.514Z,10.79
2023-02-23T02:38:01.686Z,10.95
2023-02-23T02:40:32.504Z,10.97
2023-02-23T02:43:11.502Z,10.98
2023-02-23T02:45:44.307Z,10.92
2023-02-23T02:48:17.649Z,10.88
2023-02-23T02:50:47.877Z,10.81
2023-02-23T02:53:20.702Z,10.78
2023-02-23T02:55:48.605Z,10.73
2023-02-23T02:58:17.747Z,10.74
2023-02-23T03:01:04.815Z,10.73
2023-02-23T03:03:50.922Z,10.78
2023-02-23T03:06:36.934Z,10.77
2023-02-23T03:09:27.028Z,10.76
2023-02-23T03:12:23.010Z,10.77
2023-02-23T03:15:10.984Z,10.80
2023-02-23T03:17:59.171Z,10.78
2023-02-23T03:20:46.561Z,10.77
2023-02-23T03:23:35.289Z,10.80
2023-02-23T03:26:24.623Z,10.67
2023-02-23T03:29:14.053Z,10.86
2023-02-23T03:32:02.110Z,10.83
2023-02-23T03:34:49.384Z,10.81
2023-02-23T03:37:36.894Z,10.79
2023-02-23T03:40:25.163Z,10.78
2023-02-23T03:43:12.216Z,10.79
2023-02-23T03:45:57.665Z,10.78
2023-02-23T03:48:42.845Z,10.78
2023-02-23T03:51:28.075Z,10.71
2023-02-23T03:54:15.464Z,10.69
2023-02-23T03:57:02.835Z,10.67
2023-02-23T03:59:50.883Z,10.68
2023-02-23T04:02:36.442Z,10.72
2023-02-23T04:05:24.526Z,10.75
2023-02-23T04:08:09.858Z,10.76
2023-02-23T04:10:55.260Z,10.77
2023-02-23T04:13:23.864Z,10.77
2023-02-23T04:15:53.125Z,10.81
2023-02-23T04:18:23.236Z,10.83
2023-02-23T04:20:51.193Z,10.86
2023-02-23T04:23:19.167Z,10.88
2023-02-23T04:25:47.844Z,10.89
2023-02-23T04:28:15.964Z,10.92
2023-02-23T04:30:44.008Z,10.91
2023-02-23T04:33:13.278Z,10.95
2023-02-23T04:35:41.168Z,10.98
2023-02-23T04:38:09.066Z,10.95
2023-02-23T04:40:37.066Z,10.95
2023-02-23T04:43:04.935Z,10.97
2023-02-23T04:45:33.232Z,10.97
2023-02-23T04:48:01.206Z,10.95
2023-02-23T04:50:32.476Z,10.88
2023-02-23T04:53:00.528Z,10.83
2023-02-23T04:55:29.662Z,10.79
2023-02-23T04:57:59.057Z,10.77
2023-02-23T05:00:27.358Z,10.76
2023-02-23T05:02:55.365Z,10.75
2023-02-23T05:05:23.222Z,10.77
2023-02-23T05:07:53.711Z,10.71
2023-02-23T05:10:21.889Z,10.73
2023-02-23T05:12:49.764Z,10.70
2023-02-23T05:15:17.912Z,10.68
2023-02-23T05:17:45.813Z,10.69
2023-02-23T05:20:14.371Z,10.72
2023-02-23T05:22:42.736Z,10.72
2023-02-23T05:25:12.310Z,10.71
2023-02-23T05:27:40.312Z,10.72
2023-02-23T05:30:10.042Z,10.75
2023-02-23T05:32:37.973Z,10.72
2023-02-23T05:35:07.129Z,10.71
2023-02-23T05:37:34.989Z,10.69
2023-02-23T05:40:02.876Z,10.67
2023-02-23T05:42:32.103Z,10.65
2023-02-23T05:45:00.151Z,10.65
2023-02-23T05:47:28.014Z,10.65
2023-02-23T05:49:55.894Z,10.66
2023-02-23T05:52:24.674Z,10.65
2023-02-23T05:54:52.626Z,10.66
2023-02-23T05:57:20.511Z,10.70
2023-02-23T05:59:50.008Z,10.73
2023-02-23T06:02:17.958Z,10.75
2023-02-23T06:04:46.882Z,10.77
2023-02-23T06:07:14.754Z,10.80
2023-02-23T06:09:44.483Z,10.81
2023-02-23T06:12:12.548Z,10.85
2023-02-23T06:14:40.465Z,10.89
2023-02-23T06:17:10.093Z,10.90
2023-02-23T06:19:38.057Z,10.92
2023-02-23T06:22:05.989Z,10.90
2023-02-23T06:24:34.355Z,10.93
2023-02-23T06:27:02.223Z,10.97
2023-02-23T06:29:30.074Z,10.97
2023-02-23T06:32:00.803Z,10.99
2023-02-23T06:34:30.709Z,11.02
2023-02-23T06:36:58.642Z,11.01
2023-02-23T06:39:26.563Z,10.97
2023-02-23T06:41:54.440Z,10.96
2023-02-23T06:44:22.766Z,10.93
2023-02-23T06:46:50.996Z,10.92
2023-02-23T06:49:18.941Z,10.91
2023-02-23T06:51:48.210Z,10.88
2023-02-23T06:54:16.205Z,10.70
2023-02-23T06:56:44.095Z,10.88
2023-02-23T06:59:12.029Z,10.87
2023-02-23T07:01:39.945Z,10.88
2023-02-23T07:04:09.147Z,10.89
2023-02-23T07:06:37.986Z,10.91
2023-02-23T07:09:07.330Z,10.95
2023-02-23T07:11:35.632Z,10.90
2023-02-23T07:14:03.515Z,10.95
2023-02-23T07:16:31.442Z,10.94
2023-02-23T07:18:59.445Z,10.94
2023-02-23T07:21:27.502Z,10.92
2023-02-23T07:23:55.487Z,10.95
2023-02-23T07:26:24.836Z,10.96
2023-02-23T07:28:54.242Z,10.96
2023-02-23T07:31:22.774Z,10.99
2023-02-23T07:33:50.802Z,11.02
2023-02-23T07:36:18.674Z,11.07
2023-02-23T07:38:46.588Z,11.11
2023-02-23T07:41:14.493Z,11.13
2023-02-23T07:43:43.855Z,11.15
2023-02-23T07:46:12.049Z,11.17
2023-02-23T07:48:40.768Z,11.18
2023-02-23T07:51:11.819Z,11.22
2023-02-23T07:53:39.847Z,11.19
2023-02-23T07:56:08.618Z,11.17
2023-02-23T07:58:36.524Z,11.20
2023-02-23T08:01:06.149Z,11.20
2023-02-23T08:03:34.136Z,11.21
2023-02-23T08:06:02.072Z,11.26
2023-02-23T08:08:30.291Z,11.31
2023-02-23T08:11:01.132Z,11.38
2023-02-23T08:13:29.784Z,11.46
2023-02-23T08:15:58.083Z,11.51
2023-02-23T08:18:27.855Z,11.54
2023-02-23T08:20:59.436Z,11.54
2023-02-23T08:23:27.615Z,11.56
2023-02-23T08:25:55.931Z,11.60
2023-02-23T08:28:25.263Z,11.64
2023-02-23T08:30:53.370Z,11.55
2023-02-23T08:33:21.439Z,11.67
2023-02-23T08:35:50.785Z,11.67
2023-02-23T08:38:18.740Z,11.67
2023-02-23T08:40:46.675Z,11.71
2023-02-23T08:43:14.660Z,11.78
2023-02-23T08:45:42.912Z,11.85
2023-02-23T08:48:10.987Z,11.89
2023-02-23T08:50:39.314Z,11.92
2023-02-23T08:53:09.176Z,11.97
2023-02-23T08:55:38.747Z,12.05
2023-02-23T08:58:08.253Z,12.07
2023-02-23T09:00:36.277Z,12.07
2023-02-23T09:03:05.262Z,12.09
2023-02-23T09:05:33.237Z,12.08
2023-02-23T09:08:01.427Z,12.13
2023-02-23T09:10:30.769Z,12.14
2023-02-23T09:12:58.671Z,12.14
2023-02-23T09:15:26.629Z,12.19
2023-02-23T09:17:54.516Z,12.23
2023-02-23T09:20:26.853Z,12.25
2023-02-23T09:22:54.800Z,12.24
2023-02-23T09:25:23.211Z,12.26
2023-02-23T09:27:52.855Z,12.30
2023-02-23T09:30:20.903Z,12.35
2023-02-23T09:32:48.896Z,12.39
2023-02-23T09:35:18.762Z,12.44
2023-02-23T09:37:47.401Z,12.55
2023-02-23T09:40:16.624Z,12.64
2023-02-23T09:42:46.766Z,12.68
2023-02-23T09:45:20.162Z,12.78
2023-02-23T09:47:55.528Z,12.86
2023-02-23T09:50:24.680Z,12.90
2023-02-23T09:52:54.748Z,12.98
2023-02-23T09:55:22.727Z,13.05
2023-02-23T09:57:52.065Z,13.01
2023-02-23T10:00:25.352Z,13.03
2023-02-23T10:03:00.987Z,13.06
2023-02-23T10:05:30.341Z,13.08
2023-02-23T10:08:01.182Z,13.09
2023-02-23T10:10:31.187Z,13.10
2023-02-23T10:13:01.462Z,13.15
2023-02-23T10:15:35.016Z,13.23
2023-02-23T10:18:09.099Z,13.28
2023-02-23T10:20:42.542Z,13.31
2023-02-23T10:23:13.611Z,13.38
2023-02-23T10:25:44.659Z,13.44
2023-02-23T10:28:14.314Z,13.49
2023-02-23T10:30:43.890Z,13.52
2023-02-23T10:33:17.116Z,13.54
2023-02-23T10:35:45.178Z,13.51
2023-02-23T10:38:15.969Z,13.49
2023-02-23T10:40:44.391Z,13.40
2023-02-23T10:43:12.515Z,13.36
2023-02-23T10:45:42.783Z,13.42
2023-02-23T10:48:17.505Z,13.43
2023-02-23T10:50:46.072Z,13.48
2023-02-23T10:53:16.590Z,13.53
2023-02-23T10:55:44.972Z,13.69
2023-02-23T10:58:16.947Z,13.83
2023-02-23T11:00:52.436Z,13.93
2023-02-23T11:03:25.550Z,14.09
2023-02-23T11:05:54.127Z,14.41
2023-02-23T11:08:29.355Z,14.56
2023-02-23T11:11:15.946Z,14.37
2023-02-23T11:13:45.593Z,14.73
2023-02-23T11:16:14.276Z,15.04
2023-02-23T11:18:44.313Z,15.30
2023-02-23T11:21:19.129Z,15.48
2023-02-23T11:23:47.228Z,15.54
2023-02-23T11:26:31.940Z,15.41
2023-02-23T11:29:01.046Z,15.42
2023-02-23T11:31:32.296Z,15.61
2023-02-23T11:34:02.260Z,15.74
2023-02-23T11:36:31.720Z,15.98
2023-02-23T11:39:07.812Z,15.95
2023-02-23T11:41:37.282Z,15.83
2023-02-23T11:44:06.361Z,15.72
2023-02-23T11:46:37.878Z,15.65
2023-02-23T11:49:07.972Z,15.67
2023-02-23T11:51:37.194Z,15.79
2023-02-23T11:54:05.948Z,15.87
2023-02-23T11:56:34.467Z,15.98
2023-02-23T11:59:04.473Z,16.14
2023-02-23T12:01:44.602Z,16.33
2023-02-23T12:04:24.396Z,16.09
2023-02-23T12:06:52.334Z,16.00
2023-02-23T12:09:23.507Z,15.81
2023-02-23T12:11:53.263Z,15.46
2023-02-23T12:14:26.989Z,15.27
2023-02-23T12:16:56.675Z,15.56
2023-02-23T12:19:28.878Z,16.02
2023-02-23T12:22:04.342Z,16.56
2023-02-23T12:24:39.726Z,17.07
2023-02-23T12:27:12.926Z,17.41
2023-02-23T12:29:45.611Z,17.74
2023-02-23T12:32:14.596Z,18.01
2023-02-23T12:34:46.888Z,18.18
2023-02-23T12:37:22.934Z,18.39
2023-02-23T12:39:52.701Z,18.61
2023-02-23T12:42:24.194Z,18.87
2023-02-23T12:44:53.671Z,19.16
2023-02-23T12:47:24.731Z,19.31
2023-02-23T12:49:57.143Z,19.42
2023-02-23T12:52:27.039Z,19.66
2023-02-23T12:54:54.911Z,19.96
2023-02-23T12:57:25.471Z,20.19
2023-02-23T13:00:05.608Z,20.30
2023-02-23T13:02:37.626Z,20.61
2023-02-23T13:05:18.377Z,20.86
2023-02-23T13:07:49.993Z,21.05
2023-02-23T13:10:24.128Z,21.12
2023-02-23T13:12:59.528Z,21.32
2023-02-23T13:15:31.916Z,21.38
2023-02-23T13:18:02.670Z,21.40
2023-02-23T13:20:34.797Z,21.40
2023-02-23T13:23:12.749Z,21.48
2023-02-23T13:25:44.414Z,21.52
2023-02-23T13:28:17.269Z,21.51
2023-02-23T13:30:47.580Z,21.60
2023-02-23T13:33:25.645Z,21.70
2023-02-23T13:35:56.905Z,21.80
2023-02-23T13:38:30.057Z,22.07
2023-02-23T13:41:01.177Z,22.02
2023-02-23T13:43:30.494Z,21.82
2023-02-23T13:46:06.438Z,21.94
2023-02-23T13:48:56.015Z,22.17
2023-02-23T13:51:31.740Z,22.47
2023-02-23T13:54:01.276Z,22.66
2023-02-23T13:56:29.867Z,22.67
2023-02-23T13:59:00.771Z,22.72
2023-02-23T14:01:31.522Z,22.92
2023-02-23T14:04:00.785Z,22.87
2023-02-23T14:06:30.926Z,22.75
2023-02-23T14:09:00.991Z,22.43
2023-02-23T14:11:47.327Z,22.15
2023-02-23T14:14:17.464Z,21.78
2023-02-23T15:18:53.309Z,17.98
2023-02-23T15:21:22.785Z,18.10
2023-02-23T15:23:52.026Z,18.60
2023-02-23T15:26:24.475Z,18.88
2023-02-23T15:28:53.253Z,18.90
2023-02-23T15:31:21.834Z,19.02
2023-02-23T15:33:51.822Z,19.00
2023-02-23T15:36:24.373Z,18.49
2023-02-23T15:38:53.152Z,17.99
2023-02-23T15:41:25.587Z,17.35
2023-02-23T15:43:54.863Z,17.02
2023-02-23T15:46:25.920Z,16.68
2023-02-23T15:48:55.941Z,16.33
2023-02-23T15:51:29.802Z,15.95
2023-02-23T15:53:58.428Z,15.76
2023-02-23T15:56:27.768Z,15.46
2023-02-23T15:58:57.602Z,15.32
2023-02-23T16:01:26.974Z,15.20
2023-02-23T16:04:03.865Z,15.07
2023-02-23T16:06:35.787Z,14.95
2023-02-23T16:09:20.025Z,14.80
2023-02-23T16:11:49.910Z,14.71
2023-02-23T16:14:19.977Z,14.58
2023-02-23T16:16:55.507Z,14.54
2023-02-23T16:19:31.870Z,14.48
2023-02-23T16:21:59.737Z,14.40
2023-02-23T16:24:28.890Z,14.27
2023-02-23T16:26:57.382Z,14.23
2023-02-23T16:29:28.836Z,14.25
2023-02-23T16:31:58.440Z,14.20
2023-02-23T16:34:27.255Z,14.12
2023-02-23T16:37:00.361Z,14.06
2023-02-23T16:39:29.556Z,13.98
2023-02-23T16:42:03.376Z,13.87
2023-02-23T16:44:42.909Z,13.83
2023-02-23T16:47:32.882Z,13.74
2023-02-23T16:50:13.620Z,13.64
2023-02-23T16:52:46.348Z,13.63
2023-02-23T16:55:17.804Z,13.54
2023-02-23T16:57:46.380Z,13.41
2023-02-23T17:00:18.326Z,13.29
2023-02-23T17:02:46.833Z,13.33
2023-02-23T17:05:15.824Z,13.23
2023-02-23T17:07:45.100Z,13.15
2023-02-23T17:10:24.737Z,13.17
2023-02-23T17:12:54.468Z,13.08
2023-02-23T17:15:22.834Z,13.01
2023-02-23T17:17:53.255Z,12.97
2023-02-23T17:20:21.745Z,12.91
2023-02-23T17:22:51.501Z,12.86
2023-02-23T17:25:19.464Z,12.77
2023-02-23T17:27:47.467Z,12.71
2023-02-23T17:30:16.228Z,12.65
2023-02-23T17:32:44.223Z,12.54
2023-02-23T17:35:12.325Z,12.48
2023-02-23T17:37:40.228Z,12.39
2023-02-23T17:40:10.699Z,12.32
2023-02-23T17:42:38.562Z,12.23
2023-02-23T17:45:07.976Z,12.15
2023-02-23T17:47:36.583Z,12.07
2023-02-23T17:50:04.491Z,11.94
2023-02-23T17:52:32.478Z,11.67
2023-02-23T17:55:00.585Z,11.80
2023-02-23T17:57:30.752Z,11.74
2023-02-23T17:59:58.711Z,11.70
2023-02-23T18:02:26.645Z,11.65
2023-02-23T18:04:54.551Z,11.60
2023-02-23T18:07:22.787Z,11.48
2023-02-23T18:09:51.095Z,11.46
2023-02-23T18:12:19.442Z,11.44
2023-02-23T18:14:48.905Z,11.39
2023-02-23T18:17:16.960Z,11.34
2023-02-23T18:19:46.882Z,11.30
2023-02-23T18:22:15.503Z,11.23
2023-02-23T18:24:43.370Z,11.15
2023-02-23T18:27:12.710Z,11.05
2023-02-23T18:29:40.833Z,11.00
2023-02-23T18:32:11.606Z,10.96
2023-02-23T18:34:39.604Z,10.93
2023-02-23T18:37:10.218Z,10.89
2023-02-23T18:39:38.250Z,10.87
2023-02-23T18:42:06.543Z,10.85
2023-02-23T18:44:35.352Z,10.81
2023-02-23T18:47:03.337Z,10.81
2023-02-23T18:49:32.580Z,10.80
2023-02-23T18:52:00.450Z,10.78
2023-02-23T18:54:28.350Z,10.76
2023-02-23T18:56:56.379Z,10.68
2023-02-23T18:59:25.942Z,10.59
2023-02-23T19:01:53.821Z,10.54
2023-02-23T19:04:21.750Z,10.52
2023-02-23T19:06:51.000Z,10.47
2023-02-23T19:09:21.535Z,10.25
2023-02-23T19:11:50.718Z,10.36
2023-02-23T19:14:19.847Z,10.32
2023-02-23T19:16:49.320Z,10.07
2023-02-23T19:19:17.225Z,10.33
2023-02-23T19:21:45.191Z,10.31
2023-02-23T19:24:14.540Z,10.29
2023-02-23T19:26:42.462Z,10.17
2023-02-23T19:29:10.347Z,10.25
2023-02-23T19:31:38.422Z,10.24
2023-02-23T19:34:08.916Z,10.21
2023-02-23T19:36:36.970Z,10.19
2023-02-23T19:39:15.455Z,10.13
2023-02-23T19:41:44.923Z,9.94
2023-02-23T19:44:14.325Z,10.02
2023-02-23T19:46:42.945Z,10.00
2023-02-23T19:49:10.867Z,9.90
2023-02-23T19:51:38.906Z,9.90
2023-02-23T19:54:07.564Z,9.78
2023-02-23T19:56:36.483Z,9.73
2023-02-23T19:59:05.931Z,9.60
2023-02-23T20:01:33.826Z,9.47
2023-02-23T20:04:06.373Z,9.38
2023-02-23T20:06:36.241Z,9.30
2023-02-23T20:09:05.745Z,9.20
2023-02-23T20:11:33.674Z,9.10
2023-02-23T20:14:03.327Z,9.05
2023-02-23T20:16:34.135Z,8.96
2023-02-23T20:19:03.661Z,8.86
2023-02-23T20:21:32.516Z,8.75
2023-02-23T20:24:01.521Z,8.70
2023-02-23T20:26:30.739Z,8.61
2023-02-23T20:28:58.842Z,8.50
2023-02-23T20:31:29.159Z,8.41
2023-02-23T20:33:59.514Z,8.36
2023-02-23T20:36:27.365Z,8.31
2023-02-23T20:38:55.766Z,8.27
2023-02-23T20:41:24.069Z,8.23
2023-02-23T20:43:52.596Z,8.23
2023-02-23T20:46:21.296Z,8.15
2023-02-23T20:48:49.242Z,8.12
2023-02-23T20:51:19.451Z,8.08
2023-02-23T20:53:48.156Z,8.02
2023-02-23T20:56:17.547Z,7.97
2023-02-23T20:58:45.433Z,7.93
2023-02-23T21:01:23.507Z,7.93
2023-02-23T21:03:52.333Z,7.96
2023-02-23T21:06:21.945Z,8.01
2023-02-23T21:08:50.003Z,8.05
2023-02-23T21:11:18.667Z,8.10
2023-02-23T21:13:46.857Z,8.09
2023-02-23T21:16:15.047Z,8.18
2023-02-23T21:18:43.220Z,8.20
2023-02-23T21:21:11.594Z,8.13
2023-02-23T21:23:43.324Z,8.09
2023-02-23T21:26:14.313Z,8.03
2023-02-23T21:28:43.035Z,7.97
2023-02-23T21:31:12.558Z,7.88
2023-02-23T21:33:40.708Z,7.83
2023-02-23T21:36:10.443Z,7.74
2023-02-23T21:38:40.164Z,7.70
2023-02-23T21:41:08.176Z,7.68
2023-02-23T21:43:36.126Z,7.70
2023-02-23T21:46:07.814Z,7.70
2023-02-23T21:48:35.738Z,7.68
2023-02-23T21:51:04.580Z,7.68
2023-02-23T21:53:32.493Z,7.61
2023-02-23T21:56:05.760Z,7.57
2023-02-23T21:58:33.634Z,7.52
2023-02-23T22:01:01.546Z,7.47
2023-02-23T22:03:29.419Z,7.48
2023-02-23T22:05:57.319Z,7.48
2023-02-23T22:08:27.526Z,7.27
2023-02-23T22:10:55.415Z,7.50
2023-02-23T22:13:24.687Z,7.53
2023-02-23T22:15:53.023Z,7.50
2023-02-23T22:18:20.866Z,7.55
2023-02-23T22:20:55.294Z,7.54
2023-02-23T22:23:23.153Z,7.51
2023-02-23T22:25:51.066Z,7.49
2023-02-23T22:28:18.995Z,7.45
2023-02-23T22:30:50.925Z,7.45
2023-02-23T22:33:19.921Z,7.43
2023-02-23T22:35:47.957Z,7.40
2023-02-23T22:38:15.887Z,7.34
2023-02-23T22:40:43.759Z,7.29
2023-02-23T22:43:11.734Z,7.24
2023-02-23T22:45:41.920Z,7.22
2023-02-23T22:48:11.257Z,7.23
2023-02-23T22:50:39.155Z,7.19
2023-02-23T22:53:07.100Z,7.16
2023-02-23T22:55:35.085Z,7.11
2023-02-23T22:58:08.364Z,7.12
2023-02-23T23:00:36.374Z,7.12
2023-02-23T23:03:05.066Z,7.14
2023-02-23T23:05:35.586Z,7.11
2023-02-23T23:08:03.510Z,7.07
2023-02-23T23:10:31.379Z,7.03
2023-02-23T23:12:59.382Z,7.01
2023-02-23T23:15:27.255Z,7.02
2023-02-23T23:17:55.181Z,7.00
2023-02-23T23:20:25.787Z,7.00
2023-02-23T23:22:57.121Z,7.02
2023-02-23T23:25:25.061Z,7.02
2023-02-23T23:27:56.103Z,6.85
2023-02-23T23:30:26.081Z,6.93
2023-02-23T23:32:54.303Z,6.90
2023-02-23T23:35:23.005Z,6.83
2023-02-23T23:37:51.505Z,6.76
2023-02-23T23:40:24.448Z,6.68
2023-02-23T23:42:53.014Z,6.59
2023-02-23T23:45:24.212Z,6.53
2023-02-23T23:47:52.356Z,6.50
2023-02-23T23:50:26.533Z,6.47
2023-02-23T23:52:54.776Z,6.45
2023-02-23T23:55:24.041Z,6.49
2023-02-23T23:57:52.153Z,6.52
